sensor_id;sensor_type;location;lat;lon;timestamp;temperature;humidity
4215;DHT22;2121;48.062;7.850;2023-07-13T00:00:26;21.00;99.90
4215;DHT22;2121;48.062;7.850;2023-07-13T00:02:52;21.00;99.90
4215;DHT22;2121;48.062;7.850;2023-07-13T00:05:23;21.10;99.90
4215;DHT22;2121;48.062;7.850;2023-07-13T00:07:49;21.10;99.90
4215;DHT22;2121;48.062;7.850;2023-07-13T00:10:17;20.90;99.90
4215;DHT22;2121;48.062;7.850;2023-07-13T00:12:43;20.70;99.90
4215;DHT22;2121;48.062;7.850;2023-07-13T00:15:18;20.60;99.90
4215;DHT22;2121;48.062;7.850;2023-07-13T00:17:51;20.40;99.90
4215;DHT22;2121;48.062;7.850;2023-07-13T00:20:19;20.20;99.90
4215;DHT22;2121;48.062;7.850;2023-07-13T00:22:47;20.10;99.90
4215;DHT22;2121;48.062;7.850;2023-07-13T00:25:14;20.10;99.90
4215;DHT22;2121;48.062;7.850;2023-07-13T00:27:43;20.30;99.90
4215;DHT22;2121;48.062;7.850;2023-07-13T00:30:09;20.40;99.90
4215;DHT22;2121;48.062;7.850;2023-07-13T00:32:36;20.40;99.90
4215;DHT22;2121;48.062;7.850;2023-07-13T00:35:03;20.30;99.90
4215;DHT22;2121;48.062;7.850;2023-07-13T00:37:30;20.30;99.90
4215;DHT22;2121;48.062;7.850;2023-07-13T00:39:56;20.10;99.90
4215;DHT22;2121;48.062;7.850;2023-07-13T00:42:21;19.90;99.90
4215;DHT22;2121;48.062;7.850;2023-07-13T00:47:43;19.80;99.90
4215;DHT22;2121;48.062;7.850;2023-07-13T00:50:12;19.80;99.90
4215;DHT22;2121;48.062;7.850;2023-07-13T00:52:43;19.80;99.90
4215;DHT22;2121;48.062;7.850;2023-07-13T00:55:13;20.00;99.90
4215;DHT22;2121;48.062;7.850;2023-07-13T00:57:40;20.10;99.90
4215;DHT22;2121;48.062;7.850;2023-07-13T01:00:07;20.20;99.90
4215;DHT22;2121;48.062;7.850;2023-07-13T01:02:36;20.20;99.90
4215;DHT22;2121;48.062;7.850;2023-07-13T01:05:14;20.20;99.90
4215;DHT22;2121;48.062;7.850;2023-07-13T01:07:42;20.00;99.90
4215;DHT22;2121;48.062;7.850;2023-07-13T01:10:11;20.00;99.90
4215;DHT22;2121;48.062;7.850;2023-07-13T01:12:37;19.90;99.90
4215;DHT22;2121;48.062;7.850;2023-07-13T01:15:04;19.80;99.90
4215;DHT22;2121;48.062;7.850;2023-07-13T01:17:33;19.60;99.90
4215;DHT22;2121;48.062;7.850;2023-07-13T01:19:59;19.50;99.90
4215;DHT22;2121;48.062;7.850;2023-07-13T01:22:26;19.30;99.90
4215;DHT22;2121;48.062;7.850;2023-07-13T01:24:53;19.10;99.90
4215;DHT22;2121;48.062;7.850;2023-07-13T01:27:24;18.90;99.90
4215;DHT22;2121;48.062;7.850;2023-07-13T01:29:52;18.80;99.90
4215;DHT22;2121;48.062;7.850;2023-07-13T01:32:23;18.80;99.90
4215;DHT22;2121;48.062;7.850;2023-07-13T01:34:53;18.90;99.90
4215;DHT22;2121;48.062;7.850;2023-07-13T01:37:20;18.90;99.90
4215;DHT22;2121;48.062;7.850;2023-07-13T01:39:46;19.10;99.90
4215;DHT22;2121;48.062;7.850;2023-07-13T01:42:13;19.20;99.90
4215;DHT22;2121;48.062;7.850;2023-07-13T01:44:39;19.30;99.90
4215;DHT22;2121;48.062;7.850;2023-07-13T01:47:05;19.30;99.90
4215;DHT22;2121;48.062;7.850;2023-07-13T01:49:31;19.30;99.90
4215;DHT22;2121;48.062;7.850;2023-07-13T01:51:56;19.30;99.90
4215;DHT22;2121;48.062;7.850;2023-07-13T01:54:22;19.20;99.90
4215;DHT22;2121;48.062;7.850;2023-07-13T01:56:48;19.10;99.90
4215;DHT22;2121;48.062;7.850;2023-07-13T01:59:14;19.00;99.90
4215;DHT22;2121;48.062;7.850;2023-07-13T02:01:40;18.90;99.90
4215;DHT22;2121;48.062;7.850;2023-07-13T02:04:05;18.90;99.90
4215;DHT22;2121;48.062;7.850;2023-07-13T02:06:31;18.90;99.90
4215;DHT22;2121;48.062;7.850;2023-07-13T02:08:57;18.90;99.90
4215;DHT22;2121;48.062;7.850;2023-07-13T02:11:24;18.90;99.90
4215;DHT22;2121;48.062;7.850;2023-07-13T02:13:50;18.90;99.90
4215;DHT22;2121;48.062;7.850;2023-07-13T02:16:17;19.00;99.90
4215;DHT22;2121;48.062;7.850;2023-07-13T02:18:42;19.00;99.90
4215;DHT22;2121;48.062;7.850;2023-07-13T02:21:08;19.00;99.90
4215;DHT22;2121;48.062;7.850;2023-07-13T02:23:34;19.00;99.90
4215;DHT22;2121;48.062;7.850;2023-07-13T02:26:01;19.00;99.90
4215;DHT22;2121;48.062;7.850;2023-07-13T02:28:28;18.90;99.90
4215;DHT22;2121;48.062;7.850;2023-07-13T02:30:54;18.90;99.90
4215;DHT22;2121;48.062;7.850;2023-07-13T02:33:20;18.80;99.90
4215;DHT22;2121;48.062;7.850;2023-07-13T02:35:46;18.80;99.90
4215;DHT22;2121;48.062;7.850;2023-07-13T02:38:11;18.80;99.90
4215;DHT22;2121;48.062;7.850;2023-07-13T02:40:37;18.80;99.90
4215;DHT22;2121;48.062;7.850;2023-07-13T02:43:03;18.70;99.90
4215;DHT22;2121;48.062;7.850;2023-07-13T02:45:29;18.70;99.90
4215;DHT22;2121;48.062;7.850;2023-07-13T02:47:55;18.60;99.90
4215;DHT22;2121;48.062;7.850;2023-07-13T02:50:20;18.50;99.90
4215;DHT22;2121;48.062;7.850;2023-07-13T02:52:46;18.50;99.90
4215;DHT22;2121;48.062;7.850;2023-07-13T02:55:12;18.40;99.90
4215;DHT22;2121;48.062;7.850;2023-07-13T02:57:38;18.20;99.90
4215;DHT22;2121;48.062;7.850;2023-07-13T03:00:04;18.20;99.90
4215;DHT22;2121;48.062;7.850;2023-07-13T03:02:31;18.10;99.90
4215;DHT22;2121;48.062;7.850;2023-07-13T03:04:58;18.00;99.90
4215;DHT22;2121;48.062;7.850;2023-07-13T03:07:24;18.00;99.90
4215;DHT22;2121;48.062;7.850;2023-07-13T03:09:59;18.00;99.90
4215;DHT22;2121;48.062;7.850;2023-07-13T03:12:25;18.00;99.90
4215;DHT22;2121;48.062;7.850;2023-07-13T03:14:51;18.00;99.90
4215;DHT22;2121;48.062;7.850;2023-07-13T03:17:17;18.10;99.90
4215;DHT22;2121;48.062;7.850;2023-07-13T03:19:43;18.10;99.90
4215;DHT22;2121;48.062;7.850;2023-07-13T03:22:09;18.10;99.90
4215;DHT22;2121;48.062;7.850;2023-07-13T03:24:35;18.20;99.90
4215;DHT22;2121;48.062;7.850;2023-07-13T03:27:04;18.10;99.90
4215;DHT22;2121;48.062;7.850;2023-07-13T03:29:30;18.10;99.90
4215;DHT22;2121;48.062;7.850;2023-07-13T03:31:56;18.10;99.90
4215;DHT22;2121;48.062;7.850;2023-07-13T03:34:22;18.00;99.90
4215;DHT22;2121;48.062;7.850;2023-07-13T03:36:48;18.00;99.90
4215;DHT22;2121;48.062;7.850;2023-07-13T03:39:13;17.90;99.90
4215;DHT22;2121;48.062;7.850;2023-07-13T03:41:39;17.80;99.90
4215;DHT22;2121;48.062;7.850;2023-07-13T03:44:05;18.00;99.90
4215;DHT22;2121;48.062;7.850;2023-07-13T03:46:31;18.10;99.90
4215;DHT22;2121;48.062;7.850;2023-07-13T03:48:58;18.00;99.90
4215;DHT22;2121;48.062;7.850;2023-07-13T03:51:25;17.90;99.90
4215;DHT22;2121;48.062;7.850;2023-07-13T03:53:50;17.80;99.90
4215;DHT22;2121;48.062;7.850;2023-07-13T03:56:17;17.60;99.90
4215;DHT22;2121;48.062;7.850;2023-07-13T03:58:46;17.60;99.90
4215;DHT22;2121;48.062;7.850;2023-07-13T04:01:14;17.50;99.90
4215;DHT22;2121;48.062;7.850;2023-07-13T04:03:41;17.40;99.90
4215;DHT22;2121;48.062;7.850;2023-07-13T04:06:16;17.30;99.90
4215;DHT22;2121;48.062;7.850;2023-07-13T04:08:48;17.40;99.90
4215;DHT22;2121;48.062;7.850;2023-07-13T04:11:16;17.40;99.90
4215;DHT22;2121;48.062;7.850;2023-07-13T04:13:42;17.60;99.90
4215;DHT22;2121;48.062;7.850;2023-07-13T04:16:08;17.70;99.90
4215;DHT22;2121;48.062;7.850;2023-07-13T04:18:33;17.80;99.90
4215;DHT22;2121;48.062;7.850;2023-07-13T04:20:59;17.80;99.90
4215;DHT22;2121;48.062;7.850;2023-07-13T04:23:25;17.90;99.90
4215;DHT22;2121;48.062;7.850;2023-07-13T04:25:52;18.10;99.90
4215;DHT22;2121;48.062;7.850;2023-07-13T04:28:20;18.10;99.90
4215;DHT22;2121;48.062;7.850;2023-07-13T04:30:47;18.20;99.90
4215;DHT22;2121;48.062;7.850;2023-07-13T04:33:12;18.20;99.90
4215;DHT22;2121;48.062;7.850;2023-07-13T04:35:38;18.10;99.90
4215;DHT22;2121;48.062;7.850;2023-07-13T04:38:04;18.10;99.90
4215;DHT22;2121;48.062;7.850;2023-07-13T04:40:30;18.00;99.90
4215;DHT22;2121;48.062;7.850;2023-07-13T04:42:56;18.00;99.90
4215;DHT22;2121;48.062;7.850;2023-07-13T04:45:24;18.00;99.90
4215;DHT22;2121;48.062;7.850;2023-07-13T04:47:50;18.00;99.90
4215;DHT22;2121;48.062;7.850;2023-07-13T04:50:16;18.00;99.90
4215;DHT22;2121;48.062;7.850;2023-07-13T04:52:46;18.10;99.90
4215;DHT22;2121;48.062;7.850;2023-07-13T04:55:13;18.20;99.90
4215;DHT22;2121;48.062;7.850;2023-07-13T04:57:39;18.30;99.90
4215;DHT22;2121;48.062;7.850;2023-07-13T05:00:05;18.40;99.90
4215;DHT22;2121;48.062;7.850;2023-07-13T05:02:33;18.40;99.90
4215;DHT22;2121;48.062;7.850;2023-07-13T05:05:00;18.40;99.90
4215;DHT22;2121;48.062;7.850;2023-07-13T05:07:26;18.40;99.90
4215;DHT22;2121;48.062;7.850;2023-07-13T05:09:52;18.40;99.90
4215;DHT22;2121;48.062;7.850;2023-07-13T05:12:18;18.50;99.90
4215;DHT22;2121;48.062;7.850;2023-07-13T05:14:44;18.60;99.90
4215;DHT22;2121;48.062;7.850;2023-07-13T05:17:10;18.60;99.90
4215;DHT22;2121;48.062;7.850;2023-07-13T05:19:35;18.70;99.90
4215;DHT22;2121;48.062;7.850;2023-07-13T05:22:01;18.90;99.90
4215;DHT22;2121;48.062;7.850;2023-07-13T05:24:28;19.10;99.90
4215;DHT22;2121;48.062;7.850;2023-07-13T05:26:54;19.30;99.90
4215;DHT22;2121;48.062;7.850;2023-07-13T05:29:20;19.50;99.90
4215;DHT22;2121;48.062;7.850;2023-07-13T05:31:46;19.60;99.90
4215;DHT22;2121;48.062;7.850;2023-07-13T05:34:12;19.70;99.90
4215;DHT22;2121;48.062;7.850;2023-07-13T05:36:38;19.70;99.90
4215;DHT22;2121;48.062;7.850;2023-07-13T05:39:04;19.80;99.90
4215;DHT22;2121;48.062;7.850;2023-07-13T05:41:30;19.80;99.90
4215;DHT22;2121;48.062;7.850;2023-07-13T05:43:55;19.70;99.90
4215;DHT22;2121;48.062;7.850;2023-07-13T05:46:21;19.70;99.90
4215;DHT22;2121;48.062;7.850;2023-07-13T05:48:47;19.50;99.90
4215;DHT22;2121;48.062;7.850;2023-07-13T05:51:13;19.30;99.90
4215;DHT22;2121;48.062;7.850;2023-07-13T05:53:39;19.20;99.90
4215;DHT22;2121;48.062;7.850;2023-07-13T05:56:05;19.20;99.90
4215;DHT22;2121;48.062;7.850;2023-07-13T05:58:31;19.30;99.90
4215;DHT22;2121;48.062;7.850;2023-07-13T06:01:05;19.40;99.90
4215;DHT22;2121;48.062;7.850;2023-07-13T06:03:33;19.60;99.90
4215;DHT22;2121;48.062;7.850;2023-07-13T06:05:59;19.90;99.90
4215;DHT22;2121;48.062;7.850;2023-07-13T06:08:28;20.20;99.90
4215;DHT22;2121;48.062;7.850;2023-07-13T06:10:54;20.20;99.90
4215;DHT22;2121;48.062;7.850;2023-07-13T06:13:20;20.20;99.90
4215;DHT22;2121;48.062;7.850;2023-07-13T06:15:49;20.20;99.90
4215;DHT22;2121;48.062;7.850;2023-07-13T06:18:15;20.20;99.90
4215;DHT22;2121;48.062;7.850;2023-07-13T06:20:41;20.20;99.90
4215;DHT22;2121;48.062;7.850;2023-07-13T06:23:06;20.30;99.90
4215;DHT22;2121;48.062;7.850;2023-07-13T06:25:32;20.40;99.90
4215;DHT22;2121;48.062;7.850;2023-07-13T06:27:58;20.40;99.90
4215;DHT22;2121;48.062;7.850;2023-07-13T06:30:24;20.50;99.90
4215;DHT22;2121;48.062;7.850;2023-07-13T06:32:50;20.40;99.90
4215;DHT22;2121;48.062;7.850;2023-07-13T06:35:16;20.50;99.90
4215;DHT22;2121;48.062;7.850;2023-07-13T06:37:41;20.50;99.90
4215;DHT22;2121;48.062;7.850;2023-07-13T06:40:07;20.70;99.90
4215;DHT22;2121;48.062;7.850;2023-07-13T06:42:34;20.80;99.90
4215;DHT22;2121;48.062;7.850;2023-07-13T06:44:59;20.90;99.90
4215;DHT22;2121;48.062;7.850;2023-07-13T06:47:25;20.80;99.90
4215;DHT22;2121;48.062;7.850;2023-07-13T06:49:51;20.90;99.90
4215;DHT22;2121;48.062;7.850;2023-07-13T06:52:16;21.00;99.90
4215;DHT22;2121;48.062;7.850;2023-07-13T06:54:42;21.00;99.90
4215;DHT22;2121;48.062;7.850;2023-07-13T06:57:08;20.90;99.90
4215;DHT22;2121;48.062;7.850;2023-07-13T06:59:33;20.80;99.90
4215;DHT22;2121;48.062;7.850;2023-07-13T07:01:59;20.80;99.90
4215;DHT22;2121;48.062;7.850;2023-07-13T07:04:25;20.70;99.90
4215;DHT22;2121;48.062;7.850;2023-07-13T07:06:51;20.90;99.90
4215;DHT22;2121;48.062;7.850;2023-07-13T07:09:17;21.10;99.90
4215;DHT22;2121;48.062;7.850;2023-07-13T07:11:43;21.10;99.90
4215;DHT22;2121;48.062;7.850;2023-07-13T07:14:09;21.20;99.90
4215;DHT22;2121;48.062;7.850;2023-07-13T07:16:34;21.30;99.90
4215;DHT22;2121;48.062;7.850;2023-07-13T07:19:00;21.30;99.90
4215;DHT22;2121;48.062;7.850;2023-07-13T07:21:26;21.30;99.90
4215;DHT22;2121;48.062;7.850;2023-07-13T07:23:52;21.50;99.90
4215;DHT22;2121;48.062;7.850;2023-07-13T07:26:18;21.60;99.90
4215;DHT22;2121;48.062;7.850;2023-07-13T07:28:44;21.60;99.90
4215;DHT22;2121;48.062;7.850;2023-07-13T07:31:10;21.70;99.90
4215;DHT22;2121;48.062;7.850;2023-07-13T07:33:36;21.90;99.90
4215;DHT22;2121;48.062;7.850;2023-07-13T07:36:02;22.00;99.90
4215;DHT22;2121;48.062;7.850;2023-07-13T07:38:28;21.90;99.90
4215;DHT22;2121;48.062;7.850;2023-07-13T07:40:54;21.80;99.90
4215;DHT22;2121;48.062;7.850;2023-07-13T07:43:20;21.80;99.90
4215;DHT22;2121;48.062;7.850;2023-07-13T07:45:46;21.80;99.90
4215;DHT22;2121;48.062;7.850;2023-07-13T07:48:12;22.00;99.90
4215;DHT22;2121;48.062;7.850;2023-07-13T07:50:38;22.10;99.90
4215;DHT22;2121;48.062;7.850;2023-07-13T07:53:05;22.20;99.90
4215;DHT22;2121;48.062;7.850;2023-07-13T07:55:36;22.20;99.90
4215;DHT22;2121;48.062;7.850;2023-07-13T07:58:01;22.40;99.90
4215;DHT22;2121;48.062;7.850;2023-07-13T08:00:27;22.60;99.90
4215;DHT22;2121;48.062;7.850;2023-07-13T08:02:56;22.80;98.90
4215;DHT22;2121;48.062;7.850;2023-07-13T08:05:22;22.90;97.60
4215;DHT22;2121;48.062;7.850;2023-07-13T08:07:47;22.90;97.90
4215;DHT22;2121;48.062;7.850;2023-07-13T08:10:13;22.90;98.10
4215;DHT22;2121;48.062;7.850;2023-07-13T08:12:39;22.80;97.90
4215;DHT22;2121;48.062;7.850;2023-07-13T08:15:09;23.00;98.50
4215;DHT22;2121;48.062;7.850;2023-07-13T08:17:36;23.10;98.00
4215;DHT22;2121;48.062;7.850;2023-07-13T08:20:02;23.20;97.10
4215;DHT22;2121;48.062;7.850;2023-07-13T08:22:28;23.30;96.70
4215;DHT22;2121;48.062;7.850;2023-07-13T08:24:53;23.10;95.90
4215;DHT22;2121;48.062;7.850;2023-07-13T08:27:23;23.10;96.50
4215;DHT22;2121;48.062;7.850;2023-07-13T08:29:49;23.30;96.20
4215;DHT22;2121;48.062;7.850;2023-07-13T08:32:16;23.40;96.20
4215;DHT22;2121;48.062;7.850;2023-07-13T08:34:42;23.30;97.40
4215;DHT22;2121;48.062;7.850;2023-07-13T08:37:08;23.30;96.10
4215;DHT22;2121;48.062;7.850;2023-07-13T08:39:35;23.30;96.10
4215;DHT22;2121;48.062;7.850;2023-07-13T08:42:35;23.40;96.70
4215;DHT22;2121;48.062;7.850;2023-07-13T08:45:14;23.60;95.00
4215;DHT22;2121;48.062;7.850;2023-07-13T08:47:58;23.70;94.00
4215;DHT22;2121;48.062;7.850;2023-07-13T08:50:33;23.90;93.20
4215;DHT22;2121;48.062;7.850;2023-07-13T08:53:04;23.70;91.80
4215;DHT22;2121;48.062;7.850;2023-07-13T08:55:32;23.80;92.50
4215;DHT22;2121;48.062;7.850;2023-07-13T08:58:03;23.80;93.20
4215;DHT22;2121;48.062;7.850;2023-07-13T09:03:30;24.50;90.30
4215;DHT22;2121;48.062;7.850;2023-07-13T09:06:02;24.60;87.70
4215;DHT22;2121;48.062;7.850;2023-07-13T09:08:44;24.90;88.00
4215;DHT22;2121;48.062;7.850;2023-07-13T09:11:36;25.50;88.50
4215;DHT22;2121;48.062;7.850;2023-07-13T09:14:26;26.00;90.10
4215;DHT22;2121;48.062;7.850;2023-07-13T09:16:55;26.40;86.60
4215;DHT22;2121;48.062;7.850;2023-07-13T09:19:28;26.20;83.10
4215;DHT22;2121;48.062;7.850;2023-07-13T09:21:58;25.60;83.20
4215;DHT22;2121;48.062;7.850;2023-07-13T09:24:29;25.70;87.80
4215;DHT22;2121;48.062;7.850;2023-07-13T09:26:57;25.80;87.80
4215;DHT22;2121;48.062;7.850;2023-07-13T09:29:29;25.50;88.50
4215;DHT22;2121;48.062;7.850;2023-07-13T09:32:01;25.50;87.90
4215;DHT22;2121;48.062;7.850;2023-07-13T09:34:30;25.80;89.40
4215;DHT22;2121;48.062;7.850;2023-07-13T09:36:57;26.00;87.70
4215;DHT22;2121;48.062;7.850;2023-07-13T09:39:35;25.90;85.00
4215;DHT22;2121;48.062;7.850;2023-07-13T09:42:15;25.10;84.30
4215;DHT22;2121;48.062;7.850;2023-07-13T09:44:58;24.90;85.80
4215;DHT22;2121;48.062;7.850;2023-07-13T09:47:39;25.10;86.80
4215;DHT22;2121;48.062;7.850;2023-07-13T09:50:15;25.90;87.10
4215;DHT22;2121;48.062;7.850;2023-07-13T09:52:49;26.50;84.50
4215;DHT22;2121;48.062;7.850;2023-07-13T09:55:34;27.30;83.70
4215;DHT22;2121;48.062;7.850;2023-07-13T09:58:17;28.00;81.90
4215;DHT22;2121;48.062;7.850;2023-07-13T10:00:57;27.90;81.80
4215;DHT22;2121;48.062;7.850;2023-07-13T10:03:35;26.90;82.00
4215;DHT22;2121;48.062;7.850;2023-07-13T10:06:15;26.50;87.50
4215;DHT22;2121;48.062;7.850;2023-07-13T10:08:44;27.20;85.80
4215;DHT22;2121;48.062;7.850;2023-07-13T10:11:21;27.90;81.90
4215;DHT22;2121;48.062;7.850;2023-07-13T10:13:52;28.20;80.40
4215;DHT22;2121;48.062;7.850;2023-07-13T10:16:22;28.60;81.40
4215;DHT22;2121;48.062;7.850;2023-07-13T10:18:53;29.20;78.00
4215;DHT22;2121;48.062;7.850;2023-07-13T10:21:23;29.60;77.20
4215;DHT22;2121;48.062;7.850;2023-07-13T10:23:56;29.70;75.40
4215;DHT22;2121;48.062;7.850;2023-07-13T10:26:33;29.40;76.20
4215;DHT22;2121;48.062;7.850;2023-07-13T10:29:06;29.10;74.80
4215;DHT22;2121;48.062;7.850;2023-07-13T10:31:37;29.00;78.90
4215;DHT22;2121;48.062;7.850;2023-07-13T10:34:03;28.60;75.70
4215;DHT22;2121;48.062;7.850;2023-07-13T10:36:40;28.20;76.20
4215;DHT22;2121;48.062;7.850;2023-07-13T10:39:20;28.00;77.00
4215;DHT22;2121;48.062;7.850;2023-07-13T10:41:54;28.30;78.40
4215;DHT22;2121;48.062;7.850;2023-07-13T10:44:30;28.10;74.70
4215;DHT22;2121;48.062;7.850;2023-07-13T10:47:02;27.70;76.20
4215;DHT22;2121;48.062;7.850;2023-07-13T10:49:32;28.10;76.40
4215;DHT22;2121;48.062;7.850;2023-07-13T10:52:01;28.90;73.60
4215;DHT22;2121;48.062;7.850;2023-07-13T10:54:33;29.10;72.10
4215;DHT22;2121;48.062;7.850;2023-07-13T10:57:19;28.50;72.90
4215;DHT22;2121;48.062;7.850;2023-07-13T10:59:48;27.90;75.30
4215;DHT22;2121;48.062;7.850;2023-07-13T11:02:25;28.10;76.60
4215;DHT22;2121;48.062;7.850;2023-07-13T11:04:54;28.70;74.20
4215;DHT22;2121;48.062;7.850;2023-07-13T11:07:28;29.20;72.40
4215;DHT22;2121;48.062;7.850;2023-07-13T11:09:57;29.20;72.90
4215;DHT22;2121;48.062;7.850;2023-07-13T11:17:33;29.50;71.10
4215;DHT22;2121;48.062;7.850;2023-07-13T11:22:47;28.80;71.20
4215;DHT22;2121;48.062;7.850;2023-07-13T11:33:49;30.60;69.00
4215;DHT22;2121;48.062;7.850;2023-07-13T11:36:22;30.90;69.00
4215;DHT22;2121;48.062;7.850;2023-07-13T11:39:04;30.10;66.70
4215;DHT22;2121;48.062;7.850;2023-07-13T11:41:57;29.70;70.50
4215;DHT22;2121;48.062;7.850;2023-07-13T11:44:27;30.10;68.20
4215;DHT22;2121;48.062;7.850;2023-07-13T11:47:00;30.40;68.30
4215;DHT22;2121;48.062;7.850;2023-07-13T11:49:42;30.40;67.00
4215;DHT22;2121;48.062;7.850;2023-07-13T11:52:21;30.60;68.30
4215;DHT22;2121;48.062;7.850;2023-07-13T11:54:51;31.30;67.00
4215;DHT22;2121;48.062;7.850;2023-07-13T11:57:34;30.90;68.20
4215;DHT22;2121;48.062;7.850;2023-07-13T12:00:12;31.00;67.30
4215;DHT22;2121;48.062;7.850;2023-07-13T12:02:46;29.80;67.50
4215;DHT22;2121;48.062;7.850;2023-07-13T12:05:16;29.70;68.50
4215;DHT22;2121;48.062;7.850;2023-07-13T12:07:51;29.90;69.00
4215;DHT22;2121;48.062;7.850;2023-07-13T12:10:25;30.30;67.80
4215;DHT22;2121;48.062;7.850;2023-07-13T12:13:04;30.40;66.60
4215;DHT22;2121;48.062;7.850;2023-07-13T12:15:49;29.30;68.60
4215;DHT22;2121;48.062;7.850;2023-07-13T12:18:22;28.70;69.20
4215;DHT22;2121;48.062;7.850;2023-07-13T12:20:50;28.30;71.60
4215;DHT22;2121;48.062;7.850;2023-07-13T12:23:32;28.50;70.30
4215;DHT22;2121;48.062;7.850;2023-07-13T12:26:02;30.30;70.10
4215;DHT22;2121;48.062;7.850;2023-07-13T12:28:38;30.40;69.80
4215;DHT22;2121;48.062;7.850;2023-07-13T12:31:18;31.90;69.20
4215;DHT22;2121;48.062;7.850;2023-07-13T12:34:18;33.40;65.70
4215;DHT22;2121;48.062;7.850;2023-07-13T12:36:53;35.40;63.40
4215;DHT22;2121;48.062;7.850;2023-07-13T12:39:29;35.20;63.90
4215;DHT22;2121;48.062;7.850;2023-07-13T12:44:57;33.10;63.80
4215;DHT22;2121;48.062;7.850;2023-07-13T12:47:26;33.80;65.50
4215;DHT22;2121;48.062;7.850;2023-07-13T12:49:57;34.70;63.50
4215;DHT22;2121;48.062;7.850;2023-07-13T12:52:34;35.90;61.70
4215;DHT22;2121;48.062;7.850;2023-07-13T12:55:16;35.20;61.40
4215;DHT22;2121;48.062;7.850;2023-07-13T12:57:54;33.90;61.70
4215;DHT22;2121;48.062;7.850;2023-07-13T13:00:31;32.30;66.20
4215;DHT22;2121;48.062;7.850;2023-07-13T13:03:07;33.90;63.20
4215;DHT22;2121;48.062;7.850;2023-07-13T13:05:37;36.20;60.70
4215;DHT22;2121;48.062;7.850;2023-07-13T13:08:03;38.20;56.40
4215;DHT22;2121;48.062;7.850;2023-07-13T13:10:29;38.10;57.00
4215;DHT22;2121;48.062;7.850;2023-07-13T13:12:55;39.50;57.30
4215;DHT22;2121;48.062;7.850;2023-07-13T13:15:20;40.00;54.60
4215;DHT22;2121;48.062;7.850;2023-07-13T13:17:47;38.60;52.20
4215;DHT22;2121;48.062;7.850;2023-07-13T13:20:19;38.10;53.30
4215;DHT22;2121;48.062;7.850;2023-07-13T13:22:45;38.70;53.00
4215;DHT22;2121;48.062;7.850;2023-07-13T13:25:12;39.20;52.70
4215;DHT22;2121;48.062;7.850;2023-07-13T13:27:42;36.90;54.40
4215;DHT22;2121;48.062;7.850;2023-07-13T13:30:16;34.90;57.00
4215;DHT22;2121;48.062;7.850;2023-07-13T13:32:44;34.00;58.30
4215;DHT22;2121;48.062;7.850;2023-07-13T13:35:15;34.60;56.40
4215;DHT22;2121;48.062;7.850;2023-07-13T13:37:42;35.70;57.70
4215;DHT22;2121;48.062;7.850;2023-07-13T13:40:21;37.00;57.50
4215;DHT22;2121;48.062;7.850;2023-07-13T13:42:52;37.40;54.80
4215;DHT22;2121;48.062;7.850;2023-07-13T13:45:20;36.60;54.30
4215;DHT22;2121;48.062;7.850;2023-07-13T13:47:46;35.70;55.00
4215;DHT22;2121;48.062;7.850;2023-07-13T13:50:21;36.10;56.10
4215;DHT22;2121;48.062;7.850;2023-07-13T13:52:50;34.60;55.90
4215;DHT22;2121;48.062;7.850;2023-07-13T13:55:21;33.10;57.80
4215;DHT22;2121;48.062;7.850;2023-07-13T13:57:49;31.40;57.90
4215;DHT22;2121;48.062;7.850;2023-07-13T14:00:16;30.30;60.00
4215;DHT22;2121;48.062;7.850;2023-07-13T14:02:46;29.20;62.70
4215;DHT22;2121;48.062;7.850;2023-07-13T14:05:15;28.10;66.20
4215;DHT22;2121;48.062;7.850;2023-07-13T14:07:44;27.90;65.70
4215;DHT22;2121;48.062;7.850;2023-07-13T14:10:17;27.50;68.10
4215;DHT22;2121;48.062;7.850;2023-07-13T14:12:45;27.40;67.10
4215;DHT22;2121;48.062;7.850;2023-07-13T14:17:49;27.20;67.10
4215;DHT22;2121;48.062;7.850;2023-07-13T14:20:16;27.20;66.80
4215;DHT22;2121;48.062;7.850;2023-07-13T14:22:43;27.40;65.60
4215;DHT22;2121;48.062;7.850;2023-07-13T14:25:12;27.30;67.80
4215;DHT22;2121;48.062;7.850;2023-07-13T14:27:39;26.90;66.90
4215;DHT22;2121;48.062;7.850;2023-07-13T14:30:13;27.10;69.20
4215;DHT22;2121;48.062;7.850;2023-07-13T14:32:40;27.30;67.80
4215;DHT22;2121;48.062;7.850;2023-07-13T14:35:10;27.40;66.60
4215;DHT22;2121;48.062;7.850;2023-07-13T14:37:37;27.40;66.80
4215;DHT22;2121;48.062;7.850;2023-07-13T14:40:15;26.90;67.00
4215;DHT22;2121;48.062;7.850;2023-07-13T14:42:43;26.70;67.90
4215;DHT22;2121;48.062;7.850;2023-07-13T14:45:17;27.70;69.30
4215;DHT22;2121;48.062;7.850;2023-07-13T14:47:45;28.10;66.70
4215;DHT22;2121;48.062;7.850;2023-07-13T14:50:17;28.10;66.60
4215;DHT22;2121;48.062;7.850;2023-07-13T14:52:52;27.30;66.80
4215;DHT22;2121;48.062;7.850;2023-07-13T14:55:19;28.00;67.80
4215;DHT22;2121;48.062;7.850;2023-07-13T14:57:45;29.60;65.80
4215;DHT22;2121;48.062;7.850;2023-07-13T15:00:22;30.30;65.00
4215;DHT22;2121;48.062;7.850;2023-07-13T15:02:54;31.90;62.80
4215;DHT22;2121;48.062;7.850;2023-07-13T15:05:28;30.50;63.10
4215;DHT22;2121;48.062;7.850;2023-07-13T15:07:58;29.80;64.40
4215;DHT22;2121;48.062;7.850;2023-07-13T15:10:29;29.40;65.40
4215;DHT22;2121;48.062;7.850;2023-07-13T15:13:18;29.60;65.70
4215;DHT22;2121;48.062;7.850;2023-07-13T15:15:47;29.30;63.60
4215;DHT22;2121;48.062;7.850;2023-07-13T15:18:17;29.10;63.90
4215;DHT22;2121;48.062;7.850;2023-07-13T15:20:46;28.80;63.30
4215;DHT22;2121;48.062;7.850;2023-07-13T15:23:14;29.00;63.10
4215;DHT22;2121;48.062;7.850;2023-07-13T15:25:42;29.30;62.30
4215;DHT22;2121;48.062;7.850;2023-07-13T15:28:09;28.90;62.40
4215;DHT22;2121;48.062;7.850;2023-07-13T15:33:23;31.00;61.20
4215;DHT22;2121;48.062;7.850;2023-07-13T15:35:51;29.90;62.00
4215;DHT22;2121;48.062;7.850;2023-07-13T15:38:24;29.50;62.60
4215;DHT22;2121;48.062;7.850;2023-07-13T15:40:55;29.20;62.40
4215;DHT22;2121;48.062;7.850;2023-07-13T15:43:22;28.10;64.80
4215;DHT22;2121;48.062;7.850;2023-07-13T15:45:48;27.80;65.30
4215;DHT22;2121;48.062;7.850;2023-07-13T15:48:17;27.60;64.30
4215;DHT22;2121;48.062;7.850;2023-07-13T15:50:51;27.40;64.80
4215;DHT22;2121;48.062;7.850;2023-07-13T15:53:27;27.20;65.00
4215;DHT22;2121;48.062;7.850;2023-07-13T15:55:55;26.80;65.70
4215;DHT22;2121;48.062;7.850;2023-07-13T15:58:21;26.70;65.40
4215;DHT22;2121;48.062;7.850;2023-07-13T16:00:47;27.10;63.40
4215;DHT22;2121;48.062;7.850;2023-07-13T16:03:17;27.60;64.20
4215;DHT22;2121;48.062;7.850;2023-07-13T16:05:44;29.90;60.70
4215;DHT22;2121;48.062;7.850;2023-07-13T16:08:23;30.60;58.60
4215;DHT22;2121;48.062;7.850;2023-07-13T16:10:50;30.40;60.00
4215;DHT22;2121;48.062;7.850;2023-07-13T16:13:18;30.00;63.10
4215;DHT22;2121;48.062;7.850;2023-07-13T16:15:46;29.70;65.30
4215;DHT22;2121;48.062;7.850;2023-07-13T16:18:13;29.30;63.50
4215;DHT22;2121;48.062;7.850;2023-07-13T16:20:45;29.00;63.10
4215;DHT22;2121;48.062;7.850;2023-07-13T16:23:13;28.90;65.60
4215;DHT22;2121;48.062;7.850;2023-07-13T16:25:40;28.60;66.80
4215;DHT22;2121;48.062;7.850;2023-07-13T16:28:09;28.40;67.60
4215;DHT22;2121;48.062;7.850;2023-07-13T16:30:36;28.40;67.90
4215;DHT22;2121;48.062;7.850;2023-07-13T16:33:03;29.00;64.90
4215;DHT22;2121;48.062;7.850;2023-07-13T16:35:35;29.90;66.80
4215;DHT22;2121;48.062;7.850;2023-07-13T16:38:24;31.10;60.80
4215;DHT22;2121;48.062;7.850;2023-07-13T16:40:50;31.10;62.40
4215;DHT22;2121;48.062;7.850;2023-07-13T16:43:18;30.70;62.30
4215;DHT22;2121;48.062;7.850;2023-07-13T16:45:47;30.20;63.70